Time;durP1;ratioP1;P1;durP2;ratioP2;P2;SDS_P1;SDS_P2;PMS_P1;PMS_P2;Temp;Humidity;BMP_temperature;BMP_pressure;BME280_temperature;BME280_humidity;BME280_pressure;Samples;Min_cycle;Max_cycle;Signal;HPM_P1;HPM_P2
2023/08/24 00:01:18;;;;;;;19.23;14.77;;;;;;;28.64;nan;97316.97;4854192;29;20077;-68
2023/08/24 00:03:48;;;;;;;24.95;15.55;;;;;;;28.61;nan;97314.94;4854923;29;20062;-69
2023/08/24 00:06:17;;;;;;;23.58;15.07;;;;;;;28.66;nan;97317.44;4854188;29;20060;-68
2023/08/24 00:08:47;;;;;;;22.05;15.45;;;;;;;28.64;nan;97322.41;4864512;29;20082;-68
2023/08/24 00:11:16;;;;;;;19.90;14.45;;;;;;;28.76;nan;97323.25;4856970;29;20496;-68
2023/08/24 00:13:53;;;;;;;21.90;15.30;;;;;;;28.68;nan;97329.56;4863963;29;20148;-68
2023/08/24 00:16:23;;;;;;;24.17;14.93;;;;;;;28.61;nan;97334.03;4861682;29;20053;-68
2023/08/24 00:18:52;;;;;;;22.50;14.55;;;;;;;28.64;nan;97322.41;4861759;29;20064;-68
2023/08/24 00:21:22;;;;;;;22.38;14.57;;;;;;;28.66;nan;97328.34;4862608;29;20072;-69
2023/08/24 00:23:52;;;;;;;22.35;13.93;;;;;;;28.61;nan;97334.81;4864523;29;20789;-68
2023/08/24 00:26:23;;;;;;;23.30;15.75;;;;;;;28.60;nan;97327.78;4862433;29;20049;-68
2023/08/24 00:28:52;;;;;;;22.38;15.90;;;;;;;28.64;nan;97330.59;4864337;29;20155;-68
2023/08/24 00:31:22;;;;;;;22.23;14.73;;;;;;;28.64;nan;97325.16;4835415;29;20077;-68
2023/08/24 00:33:52;;;;;;;24.17;14.18;;;;;;;28.63;nan;97331.75;4864946;29;20049;-68
2023/08/24 00:36:23;;;;;;;23.23;15.20;;;;;;;28.67;nan;97329.94;4844692;29;20057;-68
2023/08/24 00:38:53;;;;;;;23.40;14.75;;;;;;;28.69;nan;97324.91;4837135;29;20045;-69
2023/08/24 00:41:25;;;;;;;19.52;14.68;;;;;;;28.62;nan;97320.06;4840886;29;20045;-68
2023/08/24 00:43:54;;;;;;;24.35;15.45;;;;;;;28.67;nan;97329.94;4865635;29;20474;-68
2023/08/24 00:46:26;;;;;;;18.80;15.02;;;;;;;28.65;nan;97330.25;4867638;29;20059;-68
2023/08/24 00:48:59;;;;;;;21.23;15.50;;;;;;;28.60;nan;97330.50;4853248;29;20062;-69
2023/08/24 00:51:28;;;;;;;21.40;14.70;;;;;;;28.61;nan;97334.81;4847905;29;20564;-69
2023/08/24 00:53:58;;;;;;;23.95;14.75;;;;;;;28.69;nan;97333.09;4837219;29;20065;-68
2023/08/24 00:56:29;;;;;;;25.13;14.68;;;;;;;28.57;nan;97331.19;4853142;29;20064;-68
2023/08/24 00:58:59;;;;;;;24.95;14.40;;;;;;;28.61;nan;97336.75;4845756;29;20053;-68
2023/08/24 01:01:29;;;;;;;21.73;14.45;;;;;;;28.68;nan;97335.03;4836118;29;20372;-68
2023/08/24 01:03:59;;;;;;;29.75;14.57;;;;;;;28.69;nan;97331.16;4851891;29;20061;-69
2023/08/24 01:06:29;;;;;;;21.25;14.15;;;;;;;28.73;nan;97331.28;4854084;29;20077;-68
2023/08/24 04:57:04;;;;;;;32.83;7.32;;;;;;;33.91;nan;97445.06;5086100;27;21021;-68
2023/08/24 04:59:33;;;;;;;27.27;6.30;;;;;;;34.10;nan;97439.38;5077229;28;20056;-74
2023/08/24 05:02:03;;;;;;;28.70;6.47;;;;;;;34.30;nan;97427.03;5079422;28;20054;-74
2023/08/24 05:04:32;;;;;;;34.42;6.68;;;;;;;34.69;nan;97432.91;5081875;28;20048;-75
2023/08/24 05:07:01;;;;;;;21.13;6.80;;;;;;;34.74;nan;97434.50;5081522;28;20048;-75
2023/08/24 05:09:31;;;;;;;30.55;7.03;;;;;;;34.57;nan;97433.94;5081703;28;20043;-75
2023/08/24 05:12:00;;;;;;;32.42;7.57;;;;;;;34.39;nan;97443.22;5075641;28;20143;-75
2023/08/24 05:14:29;;;;;;;27.40;7.00;;;;;;;34.05;nan;97436.97;5069155;28;20126;-76
2023/08/24 05:16:59;;;;;;;31.50;6.68;;;;;;;34.59;nan;97436.31;5072002;28;20050;-67
2023/08/24 05:19:28;;;;;;;34.75;6.90;;;;;;;35.00;nan;97439.81;5076299;28;20083;-68
2023/08/24 05:21:57;;;;;;;30.52;6.63;;;;;;;35.14;nan;97437.16;5073068;28;20044;-70
2023/08/24 05:24:26;;;;;;;33.15;6.53;;;;;;;35.38;nan;97436.50;5077610;28;20056;-71
2023/08/24 05:26:58;;;;;;;29.50;7.10;;;;;;;35.20;nan;97435.63;5080066;28;20113;-69
2023/08/24 05:29:27;;;;;;;26.83;6.20;;;;;;;35.20;nan;97432.88;5079374;28;20072;-70
2023/08/24 05:31:59;;;;;;;39.72;6.47;;;;;;;35.60;nan;97438.19;5072062;28;20137;-71
2023/08/24 05:34:29;;;;;;;41.97;7.63;;;;;;;35.19;nan;97434.03;5077625;28;20043;-73
2023/08/24 05:36:59;;;;;;;30.70;6.35;;;;;;;35.15;nan;97433.19;5091379;28;20380;-74
2023/08/24 05:39:28;;;;;;;27.77;6.60;;;;;;;35.07;nan;97442.59;5073786;28;20059;-71
2023/08/24 05:41:57;;;;;;;42.65;6.63;;;;;;;35.26;nan;97434.09;5084604;28;20137;-71
2023/08/24 05:44:27;;;;;;;41.05;9.00;;;;;;;35.58;nan;97437.75;5064420;28;20156;-69
2023/08/24 05:46:56;;;;;;;25.35;6.72;;;;;;;35.12;nan;97425.72;5060988;28;20036;-72
2023/08/24 05:49:26;;;;;;;37.95;6.60;;;;;;;35.66;nan;97432.31;5076615;28;20059;-71
2023/08/24 05:51:55;;;;;;;29.52;5.72;;;;;;;35.35;nan;97422.72;5079390;28;20522;-70
2023/08/24 05:54:25;;;;;;;30.60;8.15;;;;;;;35.31;nan;97425.47;5071119;28;20074;-71
2023/08/24 05:56:54;;;;;;;29.58;5.97;;;;;;;35.38;nan;97424.69;5062330;28;20044;-71
2023/08/24 05:59:24;;;;;;;36.60;7.95;;;;;;;35.24;nan;97427.38;5061414;28;20805;-70
2023/08/24 06:01:56;;;;;;;22.53;5.73;;;;;;;35.57;nan;97419.69;5061945;28;20777;-70
2023/08/24 06:04:25;;;;;;;34.67;6.68;;;;;;;35.47;nan;97422.38;5060300;28;20058;-69
2023/08/24 06:06:54;;;;;;;33.58;7.25;;;;;;;35.30;nan;97421.13;5046827;28;20675;-70
2023/08/24 06:09:24;;;;;;;40.15;8.38;;;;;;;35.35;nan;97412.50;5050217;28;20051;-71
2023/08/24 06:11:53;;;;;;;23.67;5.55;;;;;;;35.31;nan;97414.44;5062327;28;20060;-71
2023/08/24 06:14:22;;;;;;;37.17;7.50;;;;;;;35.49;nan;97409.03;5061953;28;20052;-70
2023/08/24 06:16:53;;;;;;;39.13;7.97;;;;;;;35.48;nan;97413.72;5063415;28;20059;-70
2023/08/24 06:19:22;;;;;;;28.15;6.10;;;;;;;34.96;nan;97408.72;5063230;28;20048;-69
2023/08/24 06:21:51;;;;;;;30.02;5.82;;;;;;;34.94;nan;97408.28;5063663;28;20143;-71
2023/08/24 06:24:21;;;;;;;38.83;8.32;;;;;;;35.01;nan;97405.56;5027550;28;20040;-71
2023/08/24 06:26:50;;;;;;;28.13;6.55;;;;;;;34.81;nan;97401.53;5062693;28;20063;-72
2023/08/24 06:29:19;;;;;;;29.13;6.63;;;;;;;34.82;nan;97405.88;5062397;28;20056;-71
2023/08/24 06:31:48;;;;;;;29.02;6.13;;;;;;;34.86;nan;97403.94;5059433;28;20040;-71
2023/08/24 06:34:17;;;;;;;24.25;6.95;;;;;;;34.98;nan;97398.09;5046490;28;20126;-73
2023/08/24 06:36:47;;;;;;;35.47;6.93;;;;;;;35.08;nan;97391.88;5063505;28;20530;-71
2023/08/24 06:39:16;;;;;;;32.65;6.63;;;;;;;35.46;nan;97401.50;5060986;28;20045;-74
2023/08/24 06:41:46;;;;;;;29.85;6.47;;;;;;;35.52;nan;97392.50;5057812;28;20049;-73
2023/08/24 06:44:21;;;;;;;34.58;7.07;;;;;;;35.39;nan;97393.22;5057637;28;20044;-73
2023/08/24 06:46:51;;;;;;;35.60;6.43;;;;;;;35.00;nan;97387.50;5054264;28;20713;-73
2023/08/24 06:49:21;;;;;;;28.15;6.43;;;;;;;34.92;nan;97389.41;5060294;28;20527;-76
2023/08/24 06:51:52;;;;;;;36.22;7.38;;;;;;;34.68;nan;97393.59;5059098;28;20098;-75
2023/08/24 06:54:22;;;;;;;25.48;6.22;;;;;;;34.47;nan;97393.41;5060135;28;20052;-75
2023/08/24 06:56:53;;;;;;;28.17;7.60;;;;;;;34.20;nan;97386.50;5063536;28;20040;-77
2023/08/24 06:59:23;;;;;;;29.95;8.00;;;;;;;34.33;nan;97382.28;5060260;28;20494;-77
2023/08/24 07:01:52;;;;;;;35.97;7.00;;;;;;;34.28;nan;97379.88;5054694;28;20575;-76
2023/08/24 07:04:22;;;;;;;31.33;7.35;;;;;;;34.28;nan;97374.38;5054006;28;20113;-76
2023/08/24 07:06:51;;;;;;;36.88;6.10;;;;;;;34.05;nan;97374.53;5058873;28;20631;-75
2023/08/24 07:09:21;;;;;;;26.65;6.38;;;;;;;34.01;nan;97367.44;5056395;28;20040;-75
2023/08/24 07:11:50;;;;;;;31.98;6.45;;;;;;;34.31;nan;97365.38;5060023;28;20767;-75
2023/08/24 07:14:20;;;;;;;34.72;6.65;;;;;;;34.57;nan;97370.69;5041660;28;20388;-72
2023/08/24 07:16:49;;;;;;;30.80;7.50;;;;;;;34.66;nan;97364.88;5057052;28;20036;-75
2023/08/24 07:19:18;;;;;;;30.45;7.35;;;;;;;34.49;nan;97362.75;5054620;28;20527;-76
2023/08/24 07:21:48;;;;;;;33.80;6.18;;;;;;;34.08;nan;97353.78;5058006;28;20075;-75
2023/08/24 07:24:19;;;;;;;32.10;6.63;;;;;;;33.97;nan;97356.41;5057850;28;20044;-73
2023/08/24 07:26:55;;;;;;;33.80;6.60;;;;;;;34.29;nan;97356.72;5055070;28;20720;-75
2023/08/24 07:29:24;;;;;;;31.10;5.80;;;;;;;34.77;nan;97362.19;5053107;28;20075;-75
2023/08/24 07:31:53;;;;;;;30.70;7.43;;;;;;;34.22;nan;97346.44;5054024;28;20100;-75
2023/08/24 07:34:22;;;;;;;31.05;7.15;;;;;;;34.34;nan;97350.09;5055020;28;20048;-75
2023/08/24 07:36:53;;;;;;;34.65;6.60;;;;;;;34.57;nan;97354.19;5052695;28;20036;-74
2023/08/24 07:39:22;;;;;;;35.35;6.90;;;;;;;34.72;nan;97350.38;5056421;28;20414;-76
2023/08/24 07:41:51;;;;;;;25.75;6.38;;;;;;;34.82;nan;97342.59;5055360;28;20063;-74
2023/08/24 07:44:21;;;;;;;35.03;7.60;;;;;;;34.43;nan;97347.81;5056801;28;20044;-76
2023/08/24 07:46:50;;;;;;;45.05;7.70;;;;;;;34.08;nan;97348.28;5058980;28;20045;-74
2023/08/24 07:49:20;;;;;;;28.25;6.90;;;;;;;34.01;nan;97346.25;5051597;28;20032;-75
2023/08/24 07:51:49;;;;;;;29.60;6.65;;;;;;;34.50;nan;97337.63;5058516;28;20040;-71
2023/08/24 07:54:20;;;;;;;26.15;6.70;;;;;;;34.61;nan;97332.97;5064902;28;20055;-70
2023/08/24 07:56:49;;;;;;;32.20;6.60;;;;;;;34.77;nan;97331.94;5073621;28;20048;-71
2023/08/24 07:59:19;;;;;;;31.42;6.75;;;;;;;34.30;nan;97333.53;5080558;28;20047;-74
2023/08/24 08:01:48;;;;;;;28.85;7.40;;;;;;;34.25;nan;97331.19;5083292;28;20113;-71
2023/08/24 08:04:17;;;;;;;27.65;6.78;;;;;;;34.10;nan;97319.25;5076518;28;20052;-69
2023/08/24 08:06:46;;;;;;;31.10;7.32;;;;;;;34.08;nan;97312.56;5080083;28;20040;-69
2023/08/24 08:09:16;;;;;;;35.70;6.88;;;;;;;34.13;nan;97317.69;5078651;28;20329;-69
2023/08/24 08:11:50;;;;;;;46.38;8.55;;;;;;;34.22;nan;97305.22;5076130;28;20044;-67
2023/08/24 08:14:23;;;;;;;27.05;7.80;;;;;;;34.22;nan;97307.97;5079292;28;20522;-66
2023/08/24 08:16:52;;;;;;;28.00;6.97;;;;;;;34.31;nan;97302.13;5081219;28;20052;-67
2023/08/24 08:19:25;;;;;;;24.80;6.35;;;;;;;34.48;nan;97300.69;5080895;28;20127;-66
2023/08/24 08:21:54;;;;;;;30.53;7.00;;;;;;;34.39;nan;97295.50;5080199;28;20157;-67
2023/08/24 08:24:23;;;;;;;36.88;7.78;;;;;;;34.45;nan;97290.44;5080701;28;20048;-67
2023/08/24 08:26:54;;;;;;;29.85;7.30;;;;;;;34.43;nan;97293.59;5081281;28;20732;-68
2023/08/24 08:29:23;;;;;;;39.58;9.60;;;;;;;34.58;nan;97295.25;5076961;28;20046;-70
2023/08/24 08:31:52;;;;;;;42.75;8.20;;;;;;;34.52;nan;97291.28;5080396;28;20055;-70
2023/08/24 08:34:22;;;;;;;28.88;6.95;;;;;;;34.60;nan;97287.41;5079889;28;20072;-68
2023/08/24 08:36:51;;;;;;;29.38;7.32;;;;;;;34.71;nan;97280.03;5078751;28;20048;-69
2023/08/24 08:39:20;;;;;;;30.02;6.53;;;;;;;34.68;nan;97277.25;5078187;28;20153;-66
2023/08/24 08:41:52;;;;;;;35.45;7.05;;;;;;;34.55;nan;97282.28;5082680;28;20059;-73
2023/08/24 08:44:23;;;;;;;24.95;6.97;;;;;;;34.26;nan;97275.00;5075616;28;20075;-67
2023/08/24 08:46:53;;;;;;;24.30;6.40;;;;;;;34.10;nan;97268.97;5062316;28;20106;-67
2023/08/24 08:49:23;;;;;;;28.20;7.95;;;;;;;34.01;nan;97265.75;5077934;28;20056;-68
2023/08/24 08:51:53;;;;;;;23.77;7.97;;;;;;;33.99;nan;97266.13;5059644;28;20080;-67
2023/08/24 08:54:23;;;;;;;29.10;7.50;;;;;;;34.03;nan;97261.47;5071111;28;20483;-76
2023/08/24 08:56:54;;;;;;;25.65;7.60;;;;;;;34.00;nan;97255.94;5055572;28;20048;-73
2023/08/24 08:59:29;;;;;;;26.90;7.60;;;;;;;34.14;nan;97250.53;5074066;28;20079;-74
2023/08/24 09:02:00;;;;;;;20.88;6.43;;;;;;;34.13;nan;97254.47;5079064;28;20063;-73
2023/08/24 09:04:32;;;;;;;26.55;7.63;;;;;;;33.98;nan;97247.28;5085247;28;20103;-72
2023/08/24 09:07:04;;;;;;;30.75;8.93;;;;;;;34.01;nan;97246.53;5089059;28;20542;-71
2023/08/24 09:09:34;;;;;;;29.25;9.18;;;;;;;33.99;nan;97243.38;5085966;28;20205;-73
2023/08/24 09:12:05;;;;;;;29.98;7.10;;;;;;;34.03;nan;97239.50;5079498;28;20050;-70
2023/08/24 09:14:35;;;;;;;28.33;7.60;;;;;;;34.05;nan;97239.88;5078983;28;20130;-77
2023/08/24 09:17:04;;;;;;;28.67;7.78;;;;;;;34.18;nan;97237.66;5074710;28;20054;-75
2023/08/24 09:19:38;;;;;;;30.95;7.75;;;;;;;34.25;nan;97234.97;5077867;28;20044;-77
2023/08/24 09:22:08;;;;;;;35.63;8.38;;;;;;;34.28;nan;97234.19;5079148;27;20141;-79
2023/08/24 09:24:38;;;;;;;32.90;8.30;;;;;;;34.38;nan;97233.47;5076229;28;20131;-78
2023/08/24 09:27:18;;;;;;;25.25;7.07;;;;;;;34.45;nan;97229.94;5080811;28;20142;-76
2023/08/24 09:29:50;;;;;;;24.73;7.53;;;;;;;34.48;nan;97223.69;5080405;28;20051;-71
2023/08/24 09:32:28;;;;;;;29.40;7.15;;;;;;;34.42;nan;97220.53;5082175;28;20048;-73
2023/08/24 09:35:20;;;;;;;32.22;7.28;;;;;;;34.39;nan;97221.28;5079011;28;20109;-74
2023/08/24 09:37:50;;;;;;;25.37;8.03;;;;;;;34.31;nan;97216.91;5081201;28;20127;-68
2023/08/24 09:40:26;;;;;;;36.90;8.63;;;;;;;34.27;nan;97214.16;5079933;28;20280;-72
2023/08/24 09:42:55;;;;;;;29.20;8.15;;;;;;;34.27;nan;97221.59;5084580;28;20512;-78
2023/08/24 09:45:25;;;;;;;28.15;7.95;;;;;;;34.21;nan;97220.41;5082209;28;20048;-76
2023/08/24 09:47:54;;;;;;;31.73;8.07;;;;;;;34.17;nan;97208.56;5077750;28;20564;-71
2023/08/24 09:50:25;;;;;;;27.88;8.90;;;;;;;33.99;nan;97208.44;5070693;28;20058;-68
2023/08/24 09:53:01;;;;;;;34.05;8.82;;;;;;;33.71;nan;97208.22;5074092;28;20209;-72
2023/08/24 09:55:36;;;;;;;33.90;9.55;;;;;;;33.72;nan;97205.13;5080941;28;20047;-72
2023/08/24 09:58:09;;;;;;;33.03;9.70;;;;;;;33.61;nan;97201.44;5080997;28;20052;-71
2023/08/24 10:00:38;;;;;;;;;;;;;;;33.60;nan;97196.31;5082651;28;20134;-73
2023/08/24 10:03:11;;;;;;;32.75;9.73;;;;;;;33.65;nan;97195.97;5077662;28;20035;-68
2023/08/24 10:05:40;;;;;;;;;;;;;;;33.65;nan;97188.53;5078016;28;20135;-68
2023/08/24 10:08:54;;;;;;;30.38;10.38;;;;;;;33.49;nan;97190.75;5090778;28;19924;-72
2023/08/24 10:11:28;;;;;;;31.60;10.25;;;;;;;33.41;nan;97187.13;5073517;28;20364;-70
2023/08/24 10:14:16;;;;;;;36.22;10.00;;;;;;;33.34;nan;97187.09;5093227;27;20475;-70
2023/08/24 10:16:47;;;;;;;34.72;10.60;;;;;;;33.36;nan;97189.47;5077781;28;20040;-70
2023/08/24 10:19:18;;;;;;;30.17;9.95;;;;;;;33.40;nan;97182.84;5076919;28;20054;-71
2023/08/24 10:21:50;;;;;;;41.45;10.85;;;;;;;33.36;nan;97182.03;5067674;28;20043;-69
2023/08/24 10:24:24;;;;;;;28.35;10.90;;;;;;;33.37;nan;97182.81;5055767;28;20082;-66
2023/08/24 10:26:55;;;;;;;36.05;12.27;;;;;;;33.33;nan;97184.72;5076943;28;20185;-66
2023/08/24 10:29:27;;;;;;;35.17;11.13;;;;;;;33.34;nan;97175.31;5079122;28;20748;-67
2023/08/24 10:31:58;;;;;;;39.63;13.38;;;;;;;33.32;nan;97172.97;5081413;28;20150;-68
2023/08/24 10:34:28;;;;;;;40.50;10.48;;;;;;;33.32;nan;97188.66;5079556;28;20070;-68
2023/08/24 10:36:57;;;;;;;29.25;9.55;;;;;;;33.27;nan;97178.00;5076295;28;20048;-66
2023/08/24 10:39:37;;;;;;;36.28;10.70;;;;;;;33.26;nan;97184.66;5075593;28;20056;-69
2023/08/24 10:42:11;;;;;;;36.50;11.20;;;;;;;33.26;nan;97181.91;5040708;28;20044;-70
2023/08/24 10:44:45;;;;;;;33.22;10.00;;;;;;;33.24;nan;97184.22;5056220;28;20052;-68
2023/08/24 10:47:19;;;;;;;39.88;9.35;;;;;;;33.20;nan;97177.94;5058982;28;20052;-68
2023/08/24 10:49:56;;;;;;;;;;;;;;;33.17;nan;97179.47;5062649;28;20044;-66
2023/08/24 10:52:36;;;;;;;32.53;10.43;;;;;;;33.22;nan;97170.91;5042070;28;20386;-67
2023/08/24 10:55:23;;;;;;;28.27;10.07;;;;;;;33.17;nan;97168.50;5060019;28;20051;-67
2023/08/24 10:57:58;;;;;;;31.58;9.88;;;;;;;33.15;nan;97181.81;5038736;28;20045;-67
2023/08/24 11:00:29;;;;;;;27.40;9.60;;;;;;;33.09;nan;97177.81;5039351;28;20476;-67
2023/08/24 11:02:59;;;;;;;34.05;9.95;;;;;;;33.02;nan;97177.72;5042470;28;20443;-67
2023/08/24 11:05:35;;;;;;;25.27;10.60;;;;;;;33.03;nan;97171.06;5016915;28;20045;-66
2023/08/24 11:08:06;;;;;;;41.28;11.68;;;;;;;32.94;nan;97159.59;5039603;28;20044;-65
2023/08/24 11:10:41;;;;;;;31.85;11.23;;;;;;;32.88;nan;97172.09;5039059;28;20041;-66
2023/08/24 11:13:12;;;;;;;39.72;11.55;;;;;;;32.85;nan;97187.34;5035773;28;20052;-66
2023/08/24 11:15:57;;;;;;;42.17;10.80;;;;;;;32.81;nan;97183.78;5032200;28;20063;-66
2023/08/24 11:18:28;;;;;;;45.83;11.52;;;;;;;32.79;nan;97177.88;5033918;28;20876;-66
2023/08/24 11:21:09;;;;;;;29.90;11.95;;;;;;;32.72;nan;97182.47;5043788;28;20051;-67
2023/08/24 11:23:39;;;;;;;41.50;11.35;;;;;;;32.74;nan;97178.22;5080115;28;20047;-67
2023/08/24 11:26:09;;;;;;;41.45;11.82;;;;;;;32.69;nan;97180.50;5090335;28;20067;-67
2023/08/24 11:28:38;;;;;;;35.28;12.23;;;;;;;32.65;nan;97191.44;5077344;28;20802;-67
2023/08/24 11:31:09;;;;;;;41.30;12.25;;;;;;;32.71;nan;97178.16;5070333;28;20138;-67
2023/08/24 11:33:39;;;;;;;34.00;11.43;;;;;;;32.62;nan;97192.16;5057983;28;20466;-67
2023/08/24 11:36:09;;;;;;;34.80;11.15;;;;;;;32.58;nan;97183.06;5079808;28;20058;-67
2023/08/24 11:38:42;;;;;;;27.15;10.70;;;;;;;32.41;nan;97169.94;5076946;28;20097;-67
2023/08/24 11:41:15;;;;;;;35.92;12.40;;;;;;;32.22;nan;97165.38;5074596;28;20054;-67
2023/08/24 11:43:47;;;;;;;36.42;10.88;;;;;;;32.31;nan;97170.59;5075810;28;20873;-67
2023/08/24 11:46:18;;;;;;;35.28;12.27;;;;;;;32.32;nan;97183.13;5076614;28;20048;-68
2023/08/24 11:48:47;;;;;;;30.20;9.30;;;;;;;32.29;nan;97187.41;5075607;28;20072;-69
2023/08/24 11:51:17;;;;;;;33.05;9.50;;;;;;;32.27;nan;97180.69;5056619;28;20052;-67
2023/08/24 11:53:58;;;;;;;26.10;7.07;;;;;;;32.09;nan;97170.28;5074156;28;20487;-67
2023/08/24 11:56:28;;;;;;;32.33;8.73;;;;;;;32.02;nan;97170.16;5063863;28;20093;-67
2023/08/24 11:58:57;;;;;;;28.55;7.45;;;;;;;31.93;nan;97183.34;5048775;28;20051;-67
2023/08/24 12:01:27;;;;;;;25.35;7.85;;;;;;;31.89;nan;97185.25;5041683;28;20144;-68
2023/08/24 12:03:57;;;;;;;26.63;7.15;;;;;;;31.77;nan;97184.66;5035194;28;20484;-68
2023/08/24 12:06:28;;;;;;;29.25;7.35;;;;;;;31.65;nan;97188.38;5058434;28;20373;-68
2023/08/24 12:08:58;;;;;;;35.60;7.15;;;;;;;31.66;nan;97203.66;5059427;28;20379;-67
2023/08/24 12:11:27;;;;;;;22.50;6.85;;;;;;;31.54;nan;97190.13;5059834;28;20430;-68
2023/08/24 12:13:56;;;;;;;26.83;7.45;;;;;;;31.50;nan;97181.84;5044069;28;20062;-68
2023/08/24 12:16:27;;;;;;;24.80;7.25;;;;;;;31.36;nan;97194.50;5057265;28;20041;-67
2023/08/24 12:19:02;;;;;;;32.15;8.50;;;;;;;31.23;nan;97187.63;5055440;28;20045;-67
2023/08/24 12:21:32;;;;;;;37.83;9.50;;;;;;;31.07;nan;97185.00;5043202;28;20059;-67
2023/08/24 12:24:06;;;;;;;23.98;8.23;;;;;;;31.01;nan;97184.50;5073736;28;20493;-67
2023/08/24 12:26:36;;;;;;;30.13;8.75;;;;;;;30.94;nan;97178.84;5068612;28;20556;-67
2023/08/24 12:29:06;;;;;;;21.83;7.97;;;;;;;30.91;nan;97181.53;5056204;28;20048;-66
2023/08/24 12:31:37;;;;;;;27.63;8.90;;;;;;;30.99;nan;97186.78;5059151;28;20217;-67
2023/08/24 12:34:11;;;;;;;25.90;9.02;;;;;;;30.76;nan;97194.13;5024932;28;20379;-67
2023/08/24 12:36:41;;;;;;;25.38;9.38;;;;;;;30.78;nan;97197.31;5062464;28;20047;-65
2023/08/24 12:39:15;;;;;;;21.60;8.35;;;;;;;30.88;nan;97193.22;5063077;28;20752;-68
2023/08/24 12:41:44;;;;;;;22.10;6.97;;;;;;;30.66;nan;97183.78;4700702;28;9999871;-68
2023/08/24 12:44:14;;;;;;;20.02;8.45;;;;;;;30.59;nan;97180.91;5054890;28;20094;-71
2023/08/24 12:46:44;;;;;;;26.23;7.38;;;;;;;30.59;nan;97181.69;5040747;28;20209;-68
2023/08/24 12:49:13;;;;;;;22.88;8.43;;;;;;;30.69;nan;97172.94;5037747;28;20160;-70
2023/08/24 12:51:43;;;;;;;25.58;8.95;;;;;;;30.60;nan;97171.56;5054381;28;20478;-70
2023/08/24 12:54:12;;;;;;;27.10;7.47;;;;;;;30.61;nan;97182.13;5057003;28;20057;-66
2023/08/24 12:56:42;;;;;;;30.17;8.93;;;;;;;30.50;nan;97183.84;5023031;28;20124;-67
2023/08/24 12:59:14;;;;;;;27.13;7.55;;;;;;;30.41;nan;97185.97;5055325;28;20590;-67
2023/08/24 13:01:45;;;;;;;28.33;8.45;;;;;;;30.35;nan;97184.69;5054971;28;20049;-68
2023/08/24 13:04:14;;;;;;;27.20;7.60;;;;;;;30.42;nan;97179.38;5055052;28;20044;-67
2023/08/24 13:06:43;;;;;;;26.17;7.28;;;;;;;30.23;nan;97171.94;5037423;28;20418;-66
2023/08/24 13:09:13;;;;;;;34.72;9.07;;;;;;;30.21;nan;97165.25;5057356;28;20071;-67
2023/08/24 13:11:43;;;;;;;28.95;8.43;;;;;;;30.29;nan;97170.50;5062271;28;20053;-72
2023/08/24 13:14:12;;;;;;;29.13;8.13;;;;;;;30.28;nan;97179.84;5025371;28;20060;-72
2023/08/24 13:16:41;;;;;;;22.67;7.80;;;;;;;30.24;nan;97173.53;4705587;28;9999605;-69
2023/08/24 13:19:11;;;;;;;23.10;8.38;;;;;;;30.20;nan;97166.41;5053266;28;20045;-75
2023/08/24 13:21:40;;;;;;;23.50;7.68;;;;;;;30.27;nan;97174.78;5055997;28;20044;-70
2023/08/24 13:24:09;;;;;;;21.55;8.00;;;;;;;30.24;nan;97178.19;5056055;28;20040;-68
2023/08/24 13:26:39;;;;;;;21.92;7.15;;;;;;;30.16;nan;97181.94;5043612;28;20075;-69
2023/08/24 13:29:09;;;;;;;21.73;7.88;;;;;;;30.21;nan;97166.06;5033504;28;20133;-68
2023/08/24 13:31:38;;;;;;;31.30;8.15;;;;;;;30.16;nan;97163.59;5039361;28;20080;-68
2023/08/24 13:34:08;;;;;;;20.08;8.20;;;;;;;30.10;nan;97165.00;5043509;28;20048;-65
2023/08/24 13:36:38;;;;;;;25.88;7.65;;;;;;;29.92;nan;97182.19;5052074;28;20049;-68
2023/08/24 13:39:07;;;;;;;25.35;7.82;;;;;;;30.04;nan;97176.59;5054587;28;20561;-66
2023/08/24 13:41:37;;;;;;;31.65;8.52;;;;;;;29.99;nan;97187.78;5060838;28;20072;-64
2023/08/24 13:44:07;;;;;;;30.33;7.50;;;;;;;29.81;nan;97184.63;5061554;28;20121;-65
2023/08/24 13:46:36;;;;;;;37.63;8.77;;;;;;;29.76;nan;97182.94;5061558;28;20139;-65
2023/08/24 13:49:06;;;;;;;27.38;9.45;;;;;;;29.84;nan;97194.81;5063240;28;20072;-66
2023/08/24 13:51:35;;;;;;;36.25;9.18;;;;;;;29.84;nan;97195.63;5061289;28;20056;-63
2023/08/24 13:54:15;;;;;;;27.05;8.98;;;;;;;29.96;nan;97202.94;5062965;28;20044;-62
2023/08/24 13:56:46;;;;;;;30.95;9.43;;;;;;;29.95;nan;97212.28;5069951;28;20143;-68
2023/08/24 13:59:16;;;;;;;32.65;9.95;;;;;;;29.83;nan;97213.13;5072378;28;20131;-68
2023/08/24 14:01:45;;;;;;;26.23;9.45;;;;;;;29.92;nan;97218.44;5066630;28;20794;-65
2023/08/24 14:04:15;;;;;;;28.60;9.45;;;;;;;29.94;nan;97213.41;5081751;28;20060;-64
2023/08/24 14:06:44;;;;;;;26.58;8.82;;;;;;;29.81;nan;97220.09;5082239;28;20048;-66
2023/08/24 14:09:13;;;;;;;26.50;8.02;;;;;;;29.94;nan;97221.63;5080137;28;20472;-67
2023/08/24 14:11:43;;;;;;;22.83;8.50;;;;;;;29.99;nan;97224.06;5090560;28;20106;-67
2023/08/24 14:14:12;;;;;;;27.25;9.07;;;;;;;29.95;nan;97228.66;5092126;28;20051;-68
2023/08/24 14:16:42;;;;;;;26.73;9.02;;;;;;;29.93;nan;97222.75;5086701;28;20585;-69
2023/08/24 14:19:11;;;;;;;29.08;8.68;;;;;;;29.89;nan;97228.13;5088147;28;20121;-66
2023/08/24 14:21:43;;;;;;;27.98;9.30;;;;;;;29.87;nan;97226.88;5088830;28;20040;-67
2023/08/24 14:24:13;;;;;;;24.20;7.82;;;;;;;29.84;nan;97220.19;5093323;28;20059;-64
2023/08/24 14:26:52;;;;;;;29.12;9.48;;;;;;;29.83;nan;97234.97;5062589;28;10000874;-65
2023/08/24 14:29:21;;;;;;;29.13;8.93;;;;;;;29.76;nan;97226.63;5083174;28;20253;-68
2023/08/24 14:31:51;;;;;;;22.55;8.77;;;;;;;29.76;nan;97234.81;5082964;28;20118;-68
2023/08/24 14:34:20;;;;;;;23.08;8.63;;;;;;;29.72;nan;97235.88;5087208;28;20170;-73
2023/08/24 14:36:49;;;;;;;28.63;7.65;;;;;;;29.75;nan;97235.16;5056373;28;20047;-65
2023/08/24 14:39:19;;;;;;;31.38;11.82;;;;;;;29.82;nan;97235.34;5077591;28;20363;-65
2023/08/24 14:41:50;;;;;;;26.90;8.75;;;;;;;29.77;nan;97238.34;5072201;28;20055;-66
2023/08/24 14:44:20;;;;;;;26.08;8.23;;;;;;;29.75;nan;97246.88;5065074;28;20375;-68
2023/08/24 14:46:50;;;;;;;24.83;7.97;;;;;;;29.76;nan;97245.72;5064412;28;20726;-69
2023/08/24 14:49:19;;;;;;;26.23;8.30;;;;;;;29.77;nan;97252.78;5087086;28;20131;-66
2023/08/24 14:51:48;;;;;;;27.10;8.30;;;;;;;29.75;nan;97246.88;5087476;28;20406;-67
2023/08/24 14:54:18;;;;;;;25.58;8.68;;;;;;;29.80;nan;97243.06;5079829;28;20044;-66
2023/08/24 14:56:47;;;;;;;25.67;9.05;;;;;;;29.77;nan;97244.59;5070781;28;20044;-68
2023/08/24 14:59:17;;;;;;;28.38;8.77;;;;;;;29.73;nan;97245.66;5037874;28;20830;-65
2023/08/24 15:01:46;;;;;;;27.08;8.15;;;;;;;29.63;nan;97252.41;5033894;28;20057;-68
2023/08/24 15:04:18;;;;;;;33.90;10.57;;;;;;;29.66;nan;97248.97;5055626;28;20050;-65
2023/08/24 15:06:48;;;;;;;24.42;9.93;;;;;;;29.67;nan;97260.69;5037171;28;20048;-68
2023/08/24 15:09:17;;;;;;;35.15;10.02;;;;;;;29.61;nan;97268.34;5005406;28;20122;-68
2023/08/24 15:11:49;;;;;;;27.33;10.10;;;;;;;29.66;nan;97270.00;5019640;28;20148;-69
2023/08/24 15:14:18;;;;;;;29.67;9.45;;;;;;;29.64;nan;97269.59;5057814;28;20628;-67
2023/08/24 15:16:48;;;;;;;24.50;8.75;;;;;;;29.58;nan;97282.69;5044142;28;20640;-68
2023/08/24 15:19:17;;;;;;;33.58;10.43;;;;;;;29.59;nan;97280.75;5041042;28;20037;-69
2023/08/24 15:21:47;;;;;;;31.40;8.82;;;;;;;29.51;nan;97277.06;5042124;28;20032;-69
2023/08/24 15:24:16;;;;;;;34.22;9.43;;;;;;;29.58;nan;97279.16;5056111;28;20101;-71
2023/08/24 15:26:49;;;;;;;34.17;8.98;;;;;;;29.59;nan;97281.56;5057896;28;20052;-66
2023/08/24 15:29:20;;;;;;;25.38;8.57;;;;;;;29.54;nan;97295.47;5055448;28;20807;-70
2023/08/24 15:31:49;;;;;;;36.40;8.63;;;;;;;29.54;nan;97294.66;5060371;28;20045;-68
2023/08/24 15:34:22;;;;;;;36.03;9.03;;;;;;;29.59;nan;97291.69;4705906;28;10000019;-72
2023/08/24 15:36:53;;;;;;;34.35;9.20;;;;;;;29.56;nan;97293.19;5032938;28;20044;-66
2023/08/24 15:39:25;;;;;;;36.58;9.55;;;;;;;29.48;nan;97294.13;5042777;28;20041;-67
2023/08/24 15:41:55;;;;;;;34.05;8.57;;;;;;;29.51;nan;97289.91;5056036;28;20056;-66
2023/08/24 15:44:24;;;;;;;23.30;8.07;;;;;;;29.56;nan;97292.38;5058345;28;20472;-67
2023/08/24 15:46:55;;;;;;;32.25;8.55;;;;;;;29.59;nan;97291.69;5055256;28;20087;-70